createdAt,value
2022-10-25T00:01:26.899Z,3.20
2022-10-25T00:04:30.523Z,3.23
2022-10-25T00:07:34.243Z,3.60
2022-10-25T00:10:38.671Z,3.40
2022-10-25T00:13:42.232Z,3.50
2022-10-25T00:16:47.199Z,3.33
2022-10-25T00:19:51.036Z,4.00
2022-10-25T00:22:54.907Z,3.40
2022-10-25T00:26:03.212Z,4.10
2022-10-25T00:29:07.216Z,3.70
2022-10-25T00:32:12.213Z,3.90
2022-10-25T00:35:15.875Z,4.13
2022-10-25T00:38:19.467Z,4.00
2022-10-25T00:41:25.931Z,4.10
2022-10-25T00:44:56.163Z,3.60
2022-10-25T00:48:05.864Z,4.67
2022-10-25T00:51:10.318Z,4.63
2022-10-25T00:57:34.034Z,4.60
2022-10-25T01:00:37.864Z,6.07
2022-10-25T01:03:45.270Z,5.70
2022-10-25T01:06:52.834Z,5.37
2022-10-25T01:09:56.413Z,4.87
2022-10-25T01:13:03.182Z,5.83
2022-10-25T01:16:20.890Z,5.57
2022-10-25T01:19:54.237Z,6.07
2022-10-25T01:23:18.292Z,7.17
2022-10-25T01:26:59.859Z,6.67
2022-10-25T01:30:14.301Z,6.80
2022-10-25T01:33:29.007Z,7.60
2022-10-25T01:36:46.211Z,7.67
2022-10-25T01:39:58.455Z,7.27
2022-10-25T01:43:10.462Z,7.83
2022-10-25T01:46:26.379Z,7.47
2022-10-25T01:49:41.559Z,8.40
2022-10-25T01:52:45.188Z,8.43
2022-10-25T01:55:56.684Z,7.70
2022-10-25T01:59:30.579Z,8.10
2022-10-25T02:02:53.946Z,8.13
2022-10-25T02:06:16.587Z,8.43
2022-10-25T02:09:31.311Z,8.23
2022-10-25T02:12:49.698Z,8.90
2022-10-25T02:16:01.519Z,7.73
2022-10-25T02:19:10.524Z,7.70
2022-10-25T02:22:18.790Z,8.63
2022-10-25T02:25:23.373Z,9.20
2022-10-25T02:28:30.118Z,8.57
2022-10-25T02:31:38.085Z,9.13
2022-10-25T02:34:42.741Z,8.40
2022-10-25T02:37:48.255Z,7.80
2022-10-25T02:40:52.128Z,8.50
2022-10-25T02:43:55.754Z,8.23
2022-10-25T02:46:59.782Z,7.80
2022-10-25T02:50:03.399Z,8.73
2022-10-25T02:53:08.456Z,8.00
2022-10-25T02:56:15.513Z,8.67
2022-10-25T02:59:21.248Z,9.00
2022-10-25T03:02:24.900Z,8.77
2022-10-25T03:05:28.473Z,9.90
2022-10-25T03:08:33.781Z,9.17
2022-10-25T03:11:37.569Z,9.10
2022-10-25T03:14:41.154Z,8.70
2022-10-25T03:17:44.910Z,8.70
2022-10-25T03:20:48.675Z,8.97
2022-10-25T03:23:54.282Z,8.70
2022-10-25T03:26:57.804Z,9.87
2022-10-25T03:30:01.384Z,9.27
2022-10-25T03:33:05.084Z,8.93
2022-10-25T03:36:09.803Z,9.00
2022-10-25T03:39:15.498Z,9.60
2022-10-25T03:42:19.022Z,9.73
2022-10-25T03:45:24.518Z,8.80
2022-10-25T03:48:28.447Z,9.33
2022-10-25T03:51:32.019Z,9.33
2022-10-25T03:54:36.998Z,8.77
2022-10-25T03:57:40.587Z,9.20
2022-10-25T04:00:44.217Z,9.27
2022-10-25T04:03:47.851Z,8.83
2022-10-25T04:06:51.397Z,8.83
2022-10-25T04:09:56.372Z,8.93
2022-10-25T04:13:00.054Z,10.40
2022-10-25T04:16:08.405Z,9.77
2022-10-25T04:19:11.986Z,9.73
2022-10-25T04:22:15.590Z,10.40
2022-10-25T04:25:20.643Z,9.60
2022-10-25T04:28:24.568Z,9.40
2022-10-25T04:31:28.116Z,8.90
2022-10-25T04:34:31.891Z,9.40
2022-10-25T04:37:35.503Z,9.90
2022-10-25T04:40:40.460Z,10.10
2022-10-25T04:43:44.147Z,10.47
2022-10-25T04:46:49.002Z,10.77
2022-10-25T04:49:53.024Z,11.30
2022-10-25T04:52:56.736Z,11.60
2022-10-25T04:56:03.835Z,12.53
2022-10-25T04:59:07.450Z,11.70
2022-10-25T05:02:11.303Z,11.83
2022-10-25T05:05:15.087Z,11.53
2022-10-25T05:08:18.647Z,11.83
2022-10-25T05:11:25.881Z,11.43
2022-10-25T05:14:29.629Z,11.30
2022-10-25T05:17:33.805Z,11.77
2022-10-25T05:20:37.409Z,10.63
2022-10-25T05:23:41.434Z,11.23
2022-10-25T05:26:46.551Z,11.03
2022-10-25T05:29:50.112Z,10.50
2022-10-25T05:32:53.699Z,10.97
2022-10-25T05:35:57.391Z,10.33
2022-10-25T05:39:01.991Z,10.60
2022-10-25T05:42:07.407Z,10.87
2022-10-25T05:45:11.849Z,9.80
2022-10-25T05:48:15.703Z,11.03
2022-10-25T05:51:38.575Z,11.00
2022-10-25T05:54:42.166Z,10.33
2022-10-25T05:57:52.714Z,11.63
2022-10-25T06:00:59.905Z,10.13
2022-10-25T06:04:03.925Z,10.40
2022-10-25T06:07:07.668Z,10.10
2022-10-25T06:10:11.715Z,10.27
2022-10-25T06:13:16.664Z,11.60
2022-10-25T06:16:22.064Z,11.50
2022-10-25T06:19:25.761Z,10.67
2022-10-25T06:22:29.378Z,11.77
2022-10-25T06:25:33.047Z,11.50
2022-10-25T06:28:38.684Z,11.83
2022-10-25T06:31:43.451Z,11.17
2022-10-25T06:34:47.018Z,10.77
2022-10-25T06:37:50.743Z,11.43
2022-10-25T06:40:59.007Z,11.50
2022-10-25T06:44:06.443Z,10.63
2022-10-25T06:47:17.435Z,11.20
2022-10-25T06:50:21.651Z,11.27
2022-10-25T06:53:25.315Z,12.13
2022-10-25T06:56:30.429Z,10.83
2022-10-25T06:59:35.564Z,10.73
2022-10-25T07:02:39.175Z,11.17
2022-10-25T07:05:42.776Z,10.63
2022-10-25T07:08:48.420Z,11.53
2022-10-25T07:11:52.214Z,10.80
2022-10-25T07:14:57.166Z,10.30
2022-10-25T07:18:00.675Z,11.90
2022-10-25T07:21:07.117Z,11.10
2022-10-25T07:24:11.903Z,12.07
2022-10-25T07:27:16.641Z,10.80
2022-10-25T07:30:21.599Z,11.57
2022-10-25T07:33:25.171Z,11.23
2022-10-25T07:36:28.968Z,11.17
2022-10-25T07:39:32.520Z,11.43
2022-10-25T07:42:36.071Z,10.70
2022-10-25T07:45:41.467Z,10.37
2022-10-25T07:48:45.136Z,11.03
2022-10-25T07:51:48.679Z,9.70
2022-10-25T07:54:52.180Z,9.93
2022-10-25T07:58:02.436Z,10.07
2022-10-25T08:01:10.919Z,10.40
2022-10-25T08:04:14.541Z,10.70
2022-10-25T08:07:18.241Z,9.93
2022-10-25T08:10:23.189Z,10.17
2022-10-25T08:13:27.126Z,9.50
2022-10-25T08:16:32.123Z,10.20
2022-10-25T08:19:35.808Z,9.83
2022-10-25T08:22:39.506Z,9.63
2022-10-25T08:25:43.903Z,10.10
2022-10-25T08:28:47.513Z,10.80
2022-10-25T08:31:52.666Z,9.80
2022-10-25T08:34:56.291Z,9.57
2022-10-25T08:38:02.270Z,10.00
2022-10-25T08:41:16.833Z,10.30
2022-10-25T08:44:43.096Z,10.10
2022-10-25T08:47:54.154Z,9.13
2022-10-25T08:51:06.070Z,9.53
2022-10-25T08:54:28.078Z,8.77
2022-10-25T08:57:39.515Z,9.30
2022-10-25T09:00:48.228Z,9.23
2022-10-25T09:03:53.314Z,8.00
2022-10-25T09:07:15.316Z,8.53
2022-10-25T09:10:39.075Z,7.50
2022-10-25T09:13:53.905Z,8.17
2022-10-25T09:17:07.959Z,8.60
2022-10-25T09:20:22.506Z,7.90
2022-10-25T09:23:31.644Z,7.93
2022-10-25T09:26:49.455Z,7.60
2022-10-25T09:30:05.209Z,7.43
2022-10-25T09:36:28.947Z,7.90
2022-10-25T09:39:41.554Z,7.27
2022-10-25T09:42:52.915Z,6.40
2022-10-25T09:46:01.667Z,7.37
2022-10-25T09:49:21.872Z,7.20
2022-10-25T09:52:38.320Z,6.63
2022-10-25T09:55:53.924Z,6.30
2022-10-25T09:59:01.325Z,6.43
2022-10-25T10:02:05.668Z,6.23
2022-10-25T10:05:16.529Z,5.73
2022-10-25T10:08:21.548Z,5.43
2022-10-25T10:11:26.382Z,6.63
2022-10-25T10:14:39.219Z,6.00
2022-10-25T10:17:42.780Z,5.50
2022-10-25T10:21:01.645Z,6.80
2022-10-25T10:24:09.085Z,5.73
2022-10-25T10:27:26.301Z,5.20
2022-10-25T10:30:32.182Z,5.33
2022-10-25T10:33:39.348Z,5.10
2022-10-25T10:36:45.872Z,4.57
2022-10-25T10:39:54.392Z,4.97
2022-10-25T10:42:59.182Z,3.87
2022-10-25T10:46:07.157Z,4.00
2022-10-25T10:49:12.254Z,4.37
2022-10-25T10:52:31.882Z,4.13
2022-10-25T10:55:40.612Z,4.07
2022-10-25T10:58:53.598Z,4.20
2022-10-25T11:01:58.086Z,4.90
2022-10-25T11:05:01.827Z,5.00
2022-10-25T11:08:20.041Z,4.53
2022-10-25T11:11:26.124Z,4.90
2022-10-25T11:14:29.856Z,4.37
2022-10-25T11:17:44.851Z,4.83
2022-10-25T11:20:54.754Z,4.10
2022-10-25T11:24:13.704Z,4.23
2022-10-25T11:27:35.016Z,4.40
2022-10-25T11:30:48.726Z,4.30
2022-10-25T11:34:10.136Z,4.70
2022-10-25T11:37:22.282Z,4.27
2022-10-25T11:40:34.364Z,4.03
2022-10-25T11:44:03.332Z,4.07
2022-10-25T11:47:24.628Z,4.40
2022-10-25T11:50:41.031Z,4.87
2022-10-25T11:54:09.546Z,4.10
2022-10-25T11:57:29.260Z,3.80
2022-10-25T12:00:53.441Z,4.70
2022-10-25T12:04:16.570Z,4.73
2022-10-25T12:07:30.101Z,4.50
2022-10-25T12:10:39.772Z,4.30
2022-10-25T12:13:50.404Z,4.80
2022-10-25T12:16:57.855Z,4.43
2022-10-25T12:20:06.832Z,4.33
2022-10-25T12:23:18.131Z,4.13
2022-10-25T12:26:31.460Z,3.83
2022-10-25T12:29:40.607Z,3.93
2022-10-25T12:32:52.226Z,4.00
2022-10-25T12:36:05.127Z,4.60
2022-10-25T12:39:17.910Z,4.20
2022-10-25T12:42:27.110Z,3.80
2022-10-25T12:46:14.984Z,3.50
2022-10-25T12:49:57.254Z,3.57
2022-10-25T12:54:08.269Z,4.00
2022-10-25T12:57:26.761Z,3.73
2022-10-25T13:00:41.142Z,3.90
2022-10-25T13:04:28.786Z,4.33
2022-10-25T13:07:37.304Z,3.07
2022-10-25T13:10:47.496Z,2.20
2022-10-25T13:13:54.263Z,1.97
2022-10-25T13:17:59.933Z,2.00
2022-10-25T13:21:06.783Z,2.03
2022-10-25T13:24:11.848Z,2.03
2022-10-25T13:27:22.558Z,2.10
2022-10-25T13:30:32.046Z,2.20
2022-10-25T13:33:36.161Z,2.10
2022-10-25T13:36:51.649Z,3.10
2022-10-25T13:39:57.551Z,2.03
2022-10-25T13:43:05.747Z,2.40
2022-10-25T13:46:12.682Z,2.13
2022-10-25T13:49:44.774Z,2.60
2022-10-25T13:53:03.456Z,2.07
2022-10-25T13:56:14.974Z,2.30
2022-10-25T13:59:59.873Z,3.10
2022-10-25T14:03:47.486Z,2.60
2022-10-25T14:06:51.072Z,2.07
2022-10-25T14:09:55.336Z,2.40
2022-10-25T14:13:22.952Z,3.50
2022-10-25T14:16:32.270Z,2.40
2022-10-25T14:19:43.407Z,2.13
2022-10-25T14:22:57.414Z,2.30
2022-10-25T14:26:03.692Z,2.60
2022-10-25T14:29:22.995Z,2.97
2022-10-25T14:32:26.564Z,2.40
2022-10-25T14:35:35.142Z,2.30
2022-10-25T14:38:53.335Z,2.73
2022-10-25T14:41:59.192Z,2.40
2022-10-25T14:45:04.222Z,2.73
2022-10-25T14:48:11.070Z,2.87
2022-10-25T14:51:22.244Z,2.90
2022-10-25T14:54:31.066Z,2.90
2022-10-25T14:57:36.282Z,2.70
2022-10-25T15:00:41.823Z,3.00
2022-10-25T15:03:48.991Z,3.33
2022-10-25T15:06:52.674Z,2.63
2022-10-25T15:10:00.137Z,2.57
2022-10-25T15:13:06.033Z,2.37
2022-10-25T15:16:38.727Z,2.83
2022-10-25T15:20:02.346Z,2.53
2022-10-25T15:23:16.734Z,2.67
2022-10-25T15:26:29.308Z,2.50
2022-10-25T15:32:58.359Z,3.10
2022-10-25T15:36:05.404Z,3.20
2022-10-25T15:39:27.819Z,2.90
2022-10-25T15:42:31.323Z,3.17
2022-10-25T15:45:37.925Z,3.30
2022-10-25T15:48:45.272Z,2.73
2022-10-25T15:51:50.511Z,2.70
2022-10-25T15:54:54.383Z,3.20
2022-10-25T15:57:57.930Z,3.03
2022-10-25T16:01:01.535Z,2.97
2022-10-25T16:04:06.720Z,3.40
2022-10-25T16:07:12.455Z,3.60
2022-10-25T16:10:16.652Z,3.67
2022-10-25T16:13:28.981Z,3.23
2022-10-25T16:16:40.335Z,3.00
2022-10-25T16:19:45.829Z,3.03
2022-10-25T16:22:50.501Z,3.30
2022-10-25T16:25:56.343Z,3.10
2022-10-25T16:28:59.995Z,4.30
2022-10-25T16:32:04.115Z,3.53
2022-10-25T16:35:11.080Z,3.73
2022-10-25T16:38:16.583Z,3.73
2022-10-25T16:41:25.798Z,3.70
2022-10-25T16:44:29.435Z,3.80
2022-10-25T16:47:33.059Z,3.83
2022-10-25T16:50:38.194Z,3.63
2022-10-25T16:53:42.198Z,3.83
2022-10-25T16:56:45.831Z,4.00
2022-10-25T16:59:50.605Z,4.50
2022-10-25T17:02:54.790Z,4.43
2022-10-25T17:06:00.512Z,5.03
2022-10-25T17:09:08.340Z,5.10
2022-10-25T17:12:12.624Z,4.93
2022-10-25T17:15:37.491Z,5.70
2022-10-25T17:18:41.522Z,6.03
2022-10-25T17:21:46.549Z,6.07
2022-10-25T17:24:50.064Z,6.60
2022-10-25T17:27:54.759Z,6.80
2022-10-25T17:30:58.910Z,5.97
2022-10-25T17:34:03.884Z,6.03
2022-10-25T17:37:08.797Z,6.80
2022-10-25T17:40:14.812Z,6.40
2022-10-25T17:43:18.429Z,6.50
2022-10-25T17:46:25.911Z,7.30
2022-10-25T17:49:29.543Z,6.77
2022-10-25T17:52:34.530Z,6.33
2022-10-25T17:55:41.158Z,6.87
2022-10-25T17:58:47.194Z,7.13
2022-10-25T18:01:50.908Z,7.43
2022-10-25T18:05:19.047Z,8.20
2022-10-25T18:08:20.102Z,8.37
2022-10-25T18:11:26.054Z,7.40
2022-10-25T18:14:29.675Z,7.03
2022-10-25T18:17:33.505Z,7.73
2022-10-25T18:20:40.483Z,7.43
2022-10-25T18:23:45.593Z,7.57
2022-10-25T18:26:49.211Z,7.70
2022-10-25T18:29:52.875Z,8.20
2022-10-25T18:32:56.531Z,8.43
2022-10-25T18:36:01.003Z,8.73
2022-10-25T18:39:06.309Z,7.90
2022-10-25T18:42:10.111Z,8.33
2022-10-25T18:45:13.721Z,8.00
2022-10-25T18:48:17.552Z,8.40
2022-10-25T18:51:24.603Z,7.50
2022-10-25T18:54:29.543Z,7.37
2022-10-25T18:57:33.207Z,8.00
2022-10-25T19:00:36.779Z,8.40
2022-10-25T19:03:41.627Z,7.37
2022-10-25T19:06:45.633Z,8.17
2022-10-25T19:09:50.576Z,7.33
2022-10-25T19:12:54.143Z,7.93
2022-10-25T19:15:58.968Z,8.10
2022-10-25T19:19:07.088Z,8.00
2022-10-25T19:22:10.688Z,8.20
2022-10-25T19:25:18.106Z,7.90
2022-10-25T19:28:24.580Z,8.70
2022-10-25T19:31:29.552Z,8.23
2022-10-25T19:34:33.495Z,6.87
2022-10-25T19:37:40.091Z,7.33
2022-10-25T19:40:47.238Z,8.20
2022-10-25T19:43:51.639Z,7.77
2022-10-25T19:46:55.245Z,8.17
2022-10-25T19:49:58.901Z,7.40
2022-10-25T19:53:02.528Z,7.50
2022-10-25T19:56:11.456Z,7.13
2022-10-25T19:59:15.412Z,7.63
2022-10-25T20:02:19.289Z,8.97
2022-10-25T20:05:23.830Z,8.93
2022-10-25T20:08:27.743Z,8.17
2022-10-25T20:11:34.007Z,9.23
2022-10-25T20:14:37.751Z,9.67
2022-10-25T20:17:41.571Z,10.00
2022-10-25T20:20:45.207Z,22.83
2022-10-25T20:23:54.930Z,16.93
2022-10-25T20:27:01.977Z,11.90
2022-10-25T20:30:06.919Z,13.00
2022-10-25T20:33:10.575Z,11.13
2022-10-25T20:36:15.479Z,11.13
2022-10-25T20:39:19.309Z,9.20
2022-10-25T20:42:24.368Z,9.40
2022-10-25T20:45:44.069Z,9.53
2022-10-25T20:48:49.033Z,8.60
2022-10-25T20:51:52.743Z,9.00
2022-10-25T20:58:06.787Z,7.83
2022-10-25T21:01:11.159Z,8.60
2022-10-25T21:04:21.827Z,8.80
2022-10-25T21:07:34.508Z,7.80
2022-10-25T21:10:38.453Z,8.37
2022-10-25T21:13:45.055Z,8.63
2022-10-25T21:16:51.229Z,8.60
2022-10-25T21:19:54.929Z,8.53
2022-10-25T21:22:58.643Z,8.03
2022-10-25T21:26:03.918Z,8.00
2022-10-25T21:29:09.567Z,8.40
2022-10-25T21:32:13.146Z,8.20
2022-10-25T21:35:17.830Z,8.37
2022-10-25T21:38:21.414Z,8.60
2022-10-25T21:41:27.108Z,8.53
2022-10-25T21:44:32.243Z,9.57
2022-10-25T21:47:36.307Z,8.07
2022-10-25T21:50:39.851Z,8.30
2022-10-25T21:53:43.890Z,8.17
2022-10-25T21:56:47.613Z,7.97
2022-10-25T21:59:52.597Z,7.00
2022-10-25T22:02:57.054Z,8.40
2022-10-25T22:06:00.726Z,6.73
2022-10-25T22:09:05.254Z,6.63
2022-10-25T22:12:08.958Z,6.13
2022-10-25T22:15:13.951Z,6.40
2022-10-25T22:18:17.551Z,6.67
2022-10-25T22:21:23.072Z,6.73
2022-10-25T22:24:26.702Z,6.33
2022-10-25T22:27:30.278Z,6.20
2022-10-25T22:30:35.241Z,6.70
2022-10-25T22:33:39.256Z,7.47
2022-10-25T22:36:43.256Z,6.37
2022-10-25T22:39:46.810Z,6.03
2022-10-25T22:42:50.378Z,6.60
2022-10-25T22:45:55.510Z,6.90
2022-10-25T22:49:01.380Z,6.07
2022-10-25T22:52:05.759Z,5.47
2022-10-25T22:55:10.539Z,5.50
2022-10-25T22:58:14.082Z,4.63
2022-10-25T23:01:21.748Z,4.00
2022-10-25T23:04:25.332Z,5.30
2022-10-25T23:07:29.070Z,5.20
2022-10-25T23:10:32.632Z,5.23
2022-10-25T23:13:39.219Z,5.67
2022-10-25T23:16:44.166Z,5.30
2022-10-25T23:19:49.143Z,5.97
2022-10-25T23:22:52.726Z,5.10
2022-10-25T23:26:01.087Z,5.33
2022-10-25T23:29:05.961Z,5.80
2022-10-25T23:32:11.198Z,5.70
2022-10-25T23:35:14.959Z,5.73
2022-10-25T23:38:18.595Z,5.53
2022-10-25T23:41:23.294Z,7.00
2022-10-25T23:44:26.954Z,6.30
2022-10-25T23:47:32.336Z,5.97
2022-10-25T23:50:35.931Z,6.37
2022-10-25T23:53:40.172Z,7.37
2022-10-25T23:56:43.849Z,6.40
2022-10-25T23:59:47.423Z,7.93
